createdAt,value
2023-01-12T00:00:33.730Z,12.95
2023-01-12T00:06:04.586Z,13.25
2023-01-12T00:08:37.317Z,11.90
2023-01-12T00:11:09.681Z,10.73
2023-01-12T00:13:42.422Z,11.60
2023-01-12T00:16:38.015Z,15.90
2023-01-12T00:19:12.129Z,10.30
2023-01-12T00:22:12.379Z,12.10
2023-01-12T00:24:48.413Z,12.43
2023-01-12T00:27:21.777Z,10.60
2023-01-12T00:29:54.486Z,13.18
2023-01-12T00:32:26.365Z,19.40
2023-01-12T00:34:59.172Z,12.80
2023-01-12T00:37:31.492Z,12.82
2023-01-12T00:40:07.735Z,11.50
2023-01-12T00:42:58.376Z,14.32
2023-01-12T00:45:30.446Z,16.35
2023-01-12T00:48:02.720Z,12.27
2023-01-12T00:50:34.568Z,16.75
2023-01-12T00:53:07.632Z,11.20
2023-01-12T00:55:39.589Z,15.93
2023-01-12T00:58:12.258Z,12.07
2023-01-12T01:00:44.537Z,13.47
2023-01-12T01:03:18.213Z,13.82
2023-01-12T01:05:50.065Z,19.30
2023-01-12T01:08:22.774Z,12.95
2023-01-12T01:11:10.325Z,12.65
2023-01-12T01:13:46.221Z,13.27
2023-01-12T01:16:23.293Z,14.85
2023-01-12T01:18:57.200Z,11.50
2023-01-12T01:21:29.164Z,15.50
2023-01-12T01:24:02.047Z,14.32
2023-01-12T01:26:33.948Z,10.77
2023-01-12T01:29:07.021Z,13.55
2023-01-12T01:31:39.497Z,7.93
2023-01-12T01:34:12.108Z,13.57
2023-01-12T01:36:45.170Z,13.95
2023-01-12T01:39:17.046Z,14.10
2023-01-12T01:44:53.521Z,12.10
2023-01-12T01:47:32.569Z,15.65
2023-01-12T01:50:19.317Z,13.73
2023-01-12T01:53:00.942Z,14.97
2023-01-12T01:55:53.950Z,11.73
2023-01-12T01:58:36.667Z,12.15
2023-01-12T02:01:09.355Z,14.48
2023-01-12T02:03:41.958Z,14.20
2023-01-12T02:06:15.539Z,27.90
2023-01-12T02:09:00.640Z,12.35
2023-01-12T02:11:51.737Z,12.20
2023-01-12T02:14:42.101Z,15.55
2023-01-12T02:18:02.583Z,11.68
2023-01-12T02:21:09.591Z,11.50
2023-01-12T02:24:11.426Z,21.50
2023-01-12T02:27:19.605Z,10.38
2023-01-12T02:30:25.853Z,12.27
2023-01-12T02:33:19.237Z,12.43
2023-01-12T02:36:06.727Z,8.63
2023-01-12T02:39:13.333Z,14.65
2023-01-12T02:42:25.625Z,11.25
2023-01-12T02:45:10.221Z,18.38
2023-01-12T02:48:15.689Z,17.08
2023-01-12T02:51:32.045Z,8.77
2023-01-12T02:54:34.787Z,13.63
2023-01-12T02:57:10.991Z,14.70
2023-01-12T02:59:51.455Z,17.83
2023-01-12T03:02:25.591Z,18.92
2023-01-12T03:04:58.317Z,10.27
2023-01-12T03:07:47.733Z,14.57
2023-01-12T03:10:46.900Z,13.32
2023-01-12T03:13:20.896Z,7.93
2023-01-12T03:15:56.515Z,17.15
2023-01-12T03:18:38.999Z,12.23
2023-01-12T03:21:27.069Z,14.55
2023-01-12T03:24:11.086Z,14.68
2023-01-12T03:26:48.961Z,14.10
2023-01-12T03:29:32.025Z,12.82
2023-01-12T03:32:06.262Z,9.43
2023-01-12T03:34:40.051Z,8.27
2023-01-12T03:37:23.628Z,10.98
2023-01-12T03:40:21.653Z,13.13
2023-01-12T03:43:09.052Z,12.27
2023-01-12T03:46:21.902Z,13.80
2023-01-12T03:49:03.316Z,9.98
2023-01-12T03:51:42.879Z,8.30
2023-01-12T03:54:17.145Z,10.35
2023-01-12T03:56:52.138Z,16.83
2023-01-12T03:59:24.920Z,13.00
2023-01-12T04:01:58.201Z,10.95
2023-01-12T04:04:30.676Z,12.57
2023-01-12T04:07:02.667Z,12.57
2023-01-12T04:09:35.549Z,11.48
2023-01-12T04:12:10.172Z,10.37
2023-01-12T04:14:47.921Z,12.02
2023-01-12T04:17:24.166Z,8.75
2023-01-12T04:19:56.948Z,16.20
2023-01-12T04:22:43.426Z,8.35
2023-01-12T04:25:22.344Z,15.97
2023-01-12T04:28:04.037Z,14.25
2023-01-12T04:30:36.777Z,8.30
2023-01-12T04:33:09.334Z,11.80
2023-01-12T04:35:42.065Z,13.50
2023-01-12T04:38:14.664Z,13.50
2023-01-12T04:40:53.781Z,12.68
2023-01-12T04:43:26.472Z,9.68
2023-01-12T04:45:58.406Z,9.77
2023-01-12T04:48:31.583Z,12.98
2023-01-12T04:51:03.981Z,11.43
2023-01-12T04:56:31.686Z,14.57
2023-01-12T04:59:04.457Z,14.80
2023-01-12T05:01:38.990Z,7.80
2023-01-12T05:04:11.912Z,10.73
2023-01-12T05:06:44.243Z,13.02
2023-01-12T05:09:36.797Z,17.90
2023-01-12T05:12:09.531Z,13.70
2023-01-12T05:14:41.861Z,7.45
2023-01-12T05:17:14.188Z,12.07
2023-01-12T05:19:46.103Z,16.88
2023-01-12T05:22:18.823Z,11.18
2023-01-12T05:24:50.806Z,11.80
2023-01-12T05:27:24.055Z,15.00
2023-01-12T05:29:59.595Z,9.43
2023-01-12T05:32:38.641Z,14.18
2023-01-12T05:35:11.001Z,10.82
2023-01-12T05:37:43.296Z,12.73
2023-01-12T05:40:16.446Z,9.38
2023-01-12T05:43:10.245Z,9.97
2023-01-12T05:45:43.071Z,9.95
2023-01-12T05:48:15.036Z,14.35
2023-01-12T05:50:47.797Z,12.05
2023-01-12T05:53:20.233Z,11.57
2023-01-12T05:55:52.123Z,11.03
2023-01-12T05:58:25.776Z,12.10
2023-01-12T06:00:58.125Z,9.75
2023-01-12T06:03:30.069Z,11.75
2023-01-12T06:06:04.434Z,12.75
2023-01-12T06:08:36.929Z,11.73
2023-01-12T06:11:31.093Z,13.90
2023-01-12T06:14:04.040Z,8.77
2023-01-12T06:16:43.478Z,11.57
2023-01-12T06:19:15.380Z,10.98
2023-01-12T06:21:48.197Z,10.97
2023-01-12T06:24:20.152Z,10.95
2023-01-12T06:26:55.255Z,9.35
2023-01-12T06:29:27.588Z,12.93
2023-01-12T06:32:00.373Z,8.38
2023-01-12T06:34:35.324Z,8.33
2023-01-12T06:37:08.885Z,9.07
2023-01-12T06:39:40.849Z,12.73
2023-01-12T06:42:29.066Z,8.88
2023-01-12T06:45:05.757Z,8.00
2023-01-12T06:48:01.868Z,8.23
2023-01-12T06:50:34.973Z,9.43
2023-01-12T06:53:08.388Z,6.20
2023-01-12T06:55:40.304Z,8.63
2023-01-12T06:58:13.043Z,10.65
2023-01-12T07:00:45.394Z,7.57
2023-01-12T07:03:20.488Z,11.80
2023-01-12T07:05:53.485Z,11.18
2023-01-12T07:08:26.944Z,8.02
2023-01-12T07:11:03.824Z,8.30
2023-01-12T07:13:39.798Z,8.10
2023-01-12T07:16:12.140Z,15.27
2023-01-12T07:18:47.548Z,7.40
2023-01-12T07:21:19.815Z,8.52
2023-01-12T07:23:52.542Z,5.60
2023-01-12T07:26:24.476Z,8.47
2023-01-12T07:28:57.468Z,7.50
2023-01-12T07:31:30.391Z,8.02
2023-01-12T07:34:04.012Z,6.13
2023-01-12T07:39:32.128Z,13.77
2023-01-12T07:42:23.835Z,6.80
2023-01-12T07:44:56.600Z,9.70
2023-01-12T07:47:30.062Z,8.90
2023-01-12T07:50:03.835Z,8.05
2023-01-12T07:52:36.809Z,7.63
2023-01-12T07:55:09.638Z,8.95
2023-01-12T07:57:44.145Z,8.02
2023-01-12T08:00:17.204Z,9.20
2023-01-12T08:02:54.326Z,7.80
2023-01-12T08:05:26.365Z,11.23
2023-01-12T08:07:59.141Z,10.73
2023-01-12T08:10:31.221Z,6.97
2023-01-12T08:13:04.402Z,11.02
2023-01-12T08:15:42.984Z,6.75
2023-01-12T08:18:24.393Z,7.93
2023-01-12T08:21:00.719Z,7.82
2023-01-12T08:23:41.757Z,6.55
2023-01-12T08:26:31.119Z,10.18
2023-01-12T08:29:12.924Z,7.45
2023-01-12T08:31:45.072Z,10.47
2023-01-12T08:34:18.353Z,7.63
2023-01-12T08:36:50.850Z,6.93
2023-01-12T08:39:23.560Z,6.15
2023-01-12T08:41:56.016Z,8.43
2023-01-12T08:44:38.200Z,6.87
2023-01-12T08:47:29.573Z,8.63
2023-01-12T08:50:01.753Z,6.35
2023-01-12T08:52:38.488Z,7.40
2023-01-12T08:55:11.776Z,7.47
2023-01-12T08:57:44.143Z,5.70
2023-01-12T09:00:16.808Z,7.57
2023-01-12T09:02:49.979Z,8.05
2023-01-12T09:05:22.504Z,6.40
2023-01-12T09:07:54.825Z,5.85
2023-01-12T09:10:28.598Z,6.87
2023-01-12T09:13:01.344Z,5.63
2023-01-12T09:15:33.268Z,4.53
2023-01-12T09:18:06.076Z,3.47
2023-01-12T09:20:38.484Z,5.55
2023-01-12T09:23:11.340Z,6.23
2023-01-12T09:25:43.626Z,6.97
2023-01-12T09:28:35.475Z,5.93
2023-01-12T09:31:11.686Z,6.78
2023-01-12T09:33:44.450Z,4.25
2023-01-12T09:36:21.002Z,8.87
2023-01-12T09:38:53.748Z,6.10
2023-01-12T09:42:18.629Z,5.90
2023-01-12T09:45:11.079Z,5.00
2023-01-12T09:47:54.032Z,8.30
2023-01-12T09:50:33.593Z,6.57
2023-01-12T09:53:16.385Z,5.78
2023-01-12T09:56:04.196Z,8.50
2023-01-12T09:58:58.702Z,6.93
2023-01-12T10:01:30.687Z,8.70
2023-01-12T10:04:04.708Z,4.67
2023-01-12T10:06:36.984Z,9.98
2023-01-12T10:09:38.193Z,7.03
2023-01-12T10:12:19.993Z,5.38
2023-01-12T10:15:10.545Z,8.05
2023-01-12T10:17:51.615Z,6.17
2023-01-12T10:20:36.586Z,6.97
2023-01-12T10:23:09.207Z,8.43
2023-01-12T10:25:48.618Z,8.23
2023-01-12T10:28:36.565Z,7.15
2023-01-12T10:31:16.804Z,6.77
2023-01-12T10:34:12.218Z,6.85
2023-01-12T10:36:49.898Z,12.70
2023-01-12T10:39:31.603Z,6.22
2023-01-12T10:42:42.623Z,10.10
2023-01-12T10:45:22.261Z,5.73
2023-01-12T10:47:56.209Z,4.43
2023-01-12T10:50:35.208Z,8.95
2023-01-12T10:53:17.459Z,6.70
2023-01-12T10:55:49.759Z,6.63
2023-01-12T10:58:27.826Z,5.60
2023-01-12T11:01:00.076Z,9.18
2023-01-12T11:03:38.083Z,7.57
2023-01-12T11:06:28.892Z,8.20
2023-01-12T11:09:26.326Z,8.15
2023-01-12T11:12:24.690Z,6.40
2023-01-12T11:15:12.458Z,6.60
2023-01-12T11:18:06.030Z,4.90
2023-01-12T11:21:09.638Z,8.65
2023-01-12T11:24:09.535Z,7.60
2023-01-12T11:26:50.481Z,9.33
2023-01-12T11:29:42.359Z,7.72
2023-01-12T11:32:34.090Z,5.72
2023-01-12T11:35:39.740Z,4.43
2023-01-12T11:38:19.349Z,6.85
2023-01-12T11:40:56.695Z,5.73
2023-01-12T11:43:51.323Z,6.30
2023-01-12T11:46:47.969Z,7.75
2023-01-12T11:49:32.010Z,4.03
2023-01-12T11:52:04.104Z,4.28
2023-01-12T11:54:38.737Z,4.77
2023-01-12T11:57:45.830Z,8.82
2023-01-12T12:01:12.908Z,4.15
2023-01-12T12:03:45.637Z,10.55
2023-01-12T12:06:44.977Z,6.10
2023-01-12T12:09:52.192Z,5.30
2023-01-12T12:12:55.627Z,5.43
2023-01-12T12:16:24.045Z,4.47
2023-01-12T12:19:14.225Z,7.38
2023-01-12T12:21:53.126Z,5.88
2023-01-12T12:24:42.580Z,4.87
2023-01-12T12:27:45.644Z,6.57
2023-01-12T12:30:35.577Z,5.93
2023-01-12T12:33:38.399Z,6.47
2023-01-12T12:36:35.400Z,10.23
2023-01-12T12:39:49.534Z,7.03
2023-01-12T12:43:08.352Z,6.30
2023-01-12T12:46:16.061Z,7.05
2023-01-12T12:49:18.417Z,6.53
2023-01-12T12:51:51.633Z,8.52
2023-01-12T12:54:25.087Z,7.67
2023-01-12T12:56:57.710Z,6.40
2023-01-12T12:59:40.919Z,5.97
2023-01-12T13:02:35.247Z,4.45
2023-01-12T13:05:10.082Z,4.53
2023-01-12T13:07:45.381Z,6.80
2023-01-12T13:10:30.915Z,5.97
2023-01-12T13:13:32.775Z,5.15
2023-01-12T13:16:19.891Z,7.13
2023-01-12T13:19:06.940Z,6.70
2023-01-12T13:21:57.885Z,5.70
2023-01-12T13:24:42.051Z,6.90
2023-01-12T13:28:01.105Z,9.52
2023-01-12T13:30:34.979Z,6.88
2023-01-12T13:33:24.816Z,6.88
2023-01-12T13:36:08.684Z,3.90
2023-01-12T13:38:56.283Z,5.55
2023-01-12T13:41:53.758Z,6.47
2023-01-12T13:44:37.069Z,5.38
2023-01-12T13:47:17.962Z,6.75
2023-01-12T13:49:57.220Z,8.97
2023-01-12T13:52:32.321Z,7.13
2023-01-12T13:55:23.749Z,8.70
2023-01-12T13:58:16.875Z,8.35
2023-01-12T14:01:01.663Z,6.10
2023-01-12T14:04:00.148Z,8.10
2023-01-12T14:07:06.760Z,5.40
2023-01-12T14:10:06.671Z,8.75
2023-01-12T14:13:07.265Z,6.18
2023-01-12T14:16:01.011Z,6.25
2023-01-12T14:18:45.864Z,5.93
2023-01-12T14:21:26.029Z,8.05
2023-01-12T14:24:23.623Z,6.90
2023-01-12T14:26:55.983Z,7.72
2023-01-12T14:29:28.841Z,8.93
2023-01-12T14:32:00.857Z,5.83
2023-01-12T14:34:37.193Z,10.73
2023-01-12T14:37:26.920Z,4.30
2023-01-12T14:39:59.747Z,9.70
2023-01-12T14:42:50.667Z,7.20
2023-01-12T14:45:45.806Z,7.07
2023-01-12T14:48:28.842Z,5.57
2023-01-12T14:51:30.542Z,6.93
2023-01-12T14:54:08.882Z,10.57
2023-01-12T14:56:49.263Z,21.98
2023-01-12T14:59:25.220Z,8.77
2023-01-12T15:02:14.288Z,6.75
2023-01-12T15:04:58.980Z,9.90
2023-01-12T15:08:00.921Z,5.07
2023-01-12T15:10:42.683Z,8.70
2023-01-12T15:13:25.484Z,10.50
2023-01-12T15:16:16.433Z,6.93
2023-01-12T15:19:09.340Z,5.38
2023-01-12T15:22:04.572Z,5.35
2023-01-12T15:24:55.445Z,7.97
2023-01-12T15:27:28.297Z,4.33
2023-01-12T15:30:00.874Z,6.90
2023-01-12T15:32:48.059Z,4.85
2023-01-12T15:35:24.610Z,5.45
2023-01-12T15:37:58.757Z,5.47
2023-01-12T15:40:31.419Z,5.17
2023-01-12T15:43:05.129Z,5.88
2023-01-12T15:45:43.216Z,7.10
2023-01-12T15:48:15.636Z,6.43
2023-01-12T15:50:47.972Z,5.40
2023-01-12T15:53:24.368Z,3.93
2023-01-12T15:55:56.664Z,5.15
2023-01-12T15:58:30.867Z,4.30
2023-01-12T16:01:06.877Z,4.78
2023-01-12T16:04:02.603Z,4.85
2023-01-12T16:06:33.960Z,3.53
2023-01-12T16:09:06.217Z,5.22
2023-01-12T16:11:38.394Z,5.65
2023-01-12T16:14:10.671Z,5.35
2023-01-12T16:16:43.085Z,4.78
2023-01-12T16:19:21.823Z,4.87
2023-01-12T16:21:55.769Z,4.60
2023-01-12T16:24:31.252Z,3.30
2023-01-12T16:27:03.661Z,4.20
2023-01-12T16:29:36.315Z,5.78
2023-01-12T16:32:08.860Z,6.93
2023-01-12T16:34:41.333Z,5.82
2023-01-12T16:37:15.715Z,6.47
2023-01-12T16:39:48.902Z,3.63
2023-01-12T16:42:21.208Z,7.32
2023-01-12T16:44:53.799Z,4.70
2023-01-12T16:47:26.226Z,6.45
2023-01-12T16:49:58.870Z,5.22
2023-01-12T16:52:30.891Z,3.92
2023-01-12T16:55:04.821Z,4.55
2023-01-12T16:57:37.285Z,3.57
2023-01-12T17:00:11.635Z,5.80
2023-01-12T17:02:44.420Z,5.05
2023-01-12T17:05:16.616Z,5.57
2023-01-12T17:07:49.365Z,5.35
2023-01-12T17:10:21.725Z,6.17
2023-01-12T17:12:58.808Z,6.50
2023-01-12T17:15:31.938Z,5.07
2023-01-12T17:18:05.400Z,4.53
2023-01-12T17:20:37.458Z,6.18
2023-01-12T17:23:10.152Z,11.10
2023-01-12T17:25:42.108Z,4.65
2023-01-12T17:28:15.085Z,8.45
2023-01-12T17:30:47.759Z,4.68
2023-01-12T17:33:21.126Z,4.75
2023-01-12T17:35:55.512Z,5.43
2023-01-12T17:38:28.691Z,4.75
2023-01-12T17:41:05.915Z,8.25
2023-01-12T17:43:38.685Z,15.50
2023-01-12T17:46:19.079Z,5.95
2023-01-12T17:48:51.425Z,3.60
2023-01-12T17:51:24.623Z,3.70
2023-01-12T17:53:58.990Z,5.22
2023-01-12T17:56:32.944Z,4.43
2023-01-12T17:59:07.075Z,5.28
2023-01-12T18:01:40.966Z,5.23
2023-01-12T18:04:15.986Z,4.75
2023-01-12T18:06:48.144Z,6.82
2023-01-12T18:09:20.984Z,7.03
2023-01-12T18:11:53.049Z,4.50
2023-01-12T18:14:26.465Z,4.97
2023-01-12T18:16:59.278Z,7.97
2023-01-12T18:19:31.259Z,5.20
2023-01-12T18:22:07.292Z,5.60
2023-01-12T18:24:39.255Z,9.32
2023-01-12T18:27:12.454Z,5.73
2023-01-12T18:29:44.365Z,4.65
2023-01-12T18:32:17.556Z,4.43
2023-01-12T18:34:49.966Z,5.35
2023-01-12T18:37:23.038Z,6.90
2023-01-12T18:42:51.739Z,6.07
2023-01-12T18:45:24.748Z,6.00
2023-01-12T18:48:16.148Z,5.95
2023-01-12T18:51:11.738Z,6.15
2023-01-12T18:53:44.193Z,6.10
2023-01-12T18:56:16.472Z,7.68
2023-01-12T18:58:49.179Z,4.63
2023-01-12T19:01:24.519Z,6.80
2023-01-12T19:03:57.324Z,4.32
2023-01-12T19:06:42.772Z,7.20
2023-01-12T19:09:33.699Z,13.38
2023-01-12T19:12:06.437Z,7.68
2023-01-12T19:14:57.501Z,6.97
2023-01-12T19:17:32.773Z,5.20
2023-01-12T19:20:09.392Z,6.33
2023-01-12T19:23:00.295Z,9.30
2023-01-12T19:25:51.233Z,5.50
2023-01-12T19:28:39.076Z,6.82
2023-01-12T19:31:12.574Z,7.47
2023-01-12T19:33:45.623Z,6.73
2023-01-12T19:36:18.278Z,5.35
2023-01-12T19:38:53.951Z,4.88
2023-01-12T19:41:44.973Z,6.50
2023-01-12T19:44:18.048Z,5.68
2023-01-12T19:46:50.703Z,6.77
2023-01-12T19:49:22.757Z,5.32
2023-01-12T19:51:55.137Z,7.80
2023-01-12T19:54:28.950Z,4.90
2023-01-12T19:57:01.815Z,4.65
2023-01-12T19:59:34.172Z,9.13
2023-01-12T20:02:07.127Z,5.40
2023-01-12T20:04:39.171Z,6.90
2023-01-12T20:07:12.278Z,4.40
2023-01-12T20:09:45.875Z,8.55
2023-01-12T20:12:18.587Z,5.87
2023-01-12T20:14:50.469Z,5.60
2023-01-12T20:17:23.278Z,5.40
2023-01-12T20:19:55.219Z,5.93
2023-01-12T20:22:27.549Z,7.50
2023-01-12T20:25:01.517Z,5.83
2023-01-12T20:27:35.828Z,5.97
2023-01-12T20:30:10.691Z,6.68
2023-01-12T20:32:46.392Z,5.35
2023-01-12T20:35:23.163Z,4.80
2023-01-12T20:37:55.804Z,7.87
2023-01-12T20:40:28.022Z,7.35
2023-01-12T20:43:00.282Z,4.43
2023-01-12T20:45:32.728Z,5.22
2023-01-12T20:48:05.286Z,6.55
2023-01-12T20:50:37.239Z,5.33
2023-01-12T20:53:10.990Z,14.07
2023-01-12T20:55:49.662Z,5.43
2023-01-12T20:58:22.517Z,4.85
2023-01-12T21:00:55.033Z,5.93
2023-01-12T21:03:27.954Z,6.23
2023-01-12T21:06:01.020Z,5.40
2023-01-12T21:08:33.668Z,6.43
2023-01-12T21:11:06.001Z,5.20
2023-01-12T21:13:38.671Z,7.72
2023-01-12T21:16:15.181Z,4.80
2023-01-12T21:18:48.471Z,6.55
2023-01-12T21:21:20.431Z,5.50
2023-01-12T21:23:52.936Z,5.95
2023-01-12T21:26:25.281Z,5.65
2023-01-12T21:28:59.132Z,5.63
2023-01-12T21:31:31.138Z,4.57
2023-01-12T21:34:03.640Z,7.32
2023-01-12T21:36:35.808Z,4.15
2023-01-12T21:39:08.357Z,5.20
2023-01-12T21:41:58.864Z,5.97
2023-01-12T21:44:31.341Z,8.80
2023-01-12T21:47:03.275Z,7.10
2023-01-12T21:49:35.779Z,4.30
2023-01-12T21:52:08.055Z,5.80
2023-01-12T21:54:40.517Z,8.03
2023-01-12T21:57:12.485Z,5.05
2023-01-12T21:59:44.939Z,6.18
2023-01-12T22:02:17.365Z,6.05
2023-01-12T22:04:49.892Z,7.13
2023-01-12T22:07:26.160Z,4.47
2023-01-12T22:10:19.119Z,4.13
2023-01-12T22:12:55.515Z,5.95
2023-01-12T22:15:29.786Z,4.80
2023-01-12T22:18:02.131Z,4.82
2023-01-12T22:20:34.629Z,5.00
2023-01-12T22:23:07.545Z,5.63
2023-01-12T22:25:40.041Z,5.40
2023-01-12T22:28:12.020Z,3.33
2023-01-12T22:30:45.098Z,8.25
2023-01-12T22:33:17.116Z,6.10
2023-01-12T22:35:49.963Z,4.35
2023-01-12T22:38:22.244Z,4.00
2023-01-12T22:40:54.544Z,4.95
2023-01-12T22:43:26.800Z,4.43
2023-01-12T22:45:59.271Z,5.73
2023-01-12T22:48:31.211Z,5.55
2023-01-12T22:51:04.400Z,5.35
2023-01-12T22:53:36.788Z,5.97
2023-01-12T22:56:11.635Z,4.75
2023-01-12T22:58:51.700Z,4.83
2023-01-12T23:01:25.927Z,4.40
2023-01-12T23:03:58.581Z,6.38
2023-01-12T23:06:31.193Z,6.38
2023-01-12T23:09:03.782Z,5.38
2023-01-12T23:11:36.407Z,4.73
2023-01-12T23:14:08.441Z,8.13
2023-01-12T23:16:41.052Z,6.05
2023-01-12T23:19:13.138Z,4.00
2023-01-12T23:21:49.044Z,6.00
2023-01-12T23:24:21.114Z,4.00
2023-01-12T23:26:54.528Z,5.15
2023-01-12T23:29:26.596Z,6.07
2023-01-12T23:31:59.271Z,4.07
2023-01-12T23:34:31.578Z,5.68
2023-01-12T23:37:04.246Z,5.93
2023-01-12T23:39:36.510Z,5.75
2023-01-12T23:42:09.137Z,4.72
2023-01-12T23:44:41.175Z,4.07
2023-01-12T23:47:16.170Z,3.75
2023-01-12T23:49:48.278Z,5.30
2023-01-12T23:52:20.949Z,5.00
2023-01-12T23:54:55.810Z,6.45
2023-01-12T23:57:29.451Z,3.92
